Terminal Aerodrome Forecast
Issued by NWS Omaha/Valley, NE

Home | Current Version | Previous Version | Graphics & Text | Print | Product List | Glossary On
Versions: 1 2 3 4 5 6 7 8 9 10 11 12 13 14 15 16 17 18 19 20 21 22 23 24 25 26 27 28 29 30 31 32 33 34 35 36 37 38 39 40 41 42 43 44
000
FTUS43 KOAX 232014 AAB
TAFOFK
TAF AMD
KOFK 232014Z 2320/2418 12008KT P6SM SCT015 BKN120
     FM232300 14007KT P6SM BKN015
     FM240200 13009KT P6SM OVC009
     FM240800 12010KT P6SM OVC007
      TEMPO 2411/2414 3SM -SN
     FM241400 10009KT 1 1/2SM -SN OVC008=

USA.gov is the U.S. government's official web portal to all federal, state and local government web resources and services.